Flemington, NJ

2:46 PM EDT on October 23, 2014 (GMT -0400)
North Forty Doghouse | Change Station
CLOSE
Current Station
Personal Weather Station
Location: Flemington, NJ
Elevation: 180 ft
Nearby Weather Stations

Elev 180 ft 40.50 °N, 74.83 °W | Updated 1 minute ago

Overcast
Overcast
51.0 °F
Feels Like 51.0 °F
N
7.0
Wind Variable Wind from NNW
Gusts 26.0 mph

Today
High -- | Low -- °F
--% Chance of Precip.
Yesterday
High -- | Low -- °F
Precip. -- in
7:19 AM 6:07 PM
Waning Crescent, 0% visible
Pressure 29.73 in
Visibility 10.0 miles
Clouds Mostly Cloudy 2600 ft
Mostly Cloudy 3200 ft
Overcast 5000 ft
Dew Point 44 °F
Humidity 76%
Rainfall 0.17 in
Snow Depth Not available.
UV 1 out of 12
Pollen .10 out of 12
Air Quality Not available.
Flu Activity Sporadic
METAR KSMQ 231753Z AUTO 32008G14KT 280V350 10SM -RA BKN026 BKN032 OVC050 12/08 A2972 RMK AO2 SLP066 P0002 60010 T01220078 10122 20106 58004

More Conditions Fewer Conditions

Pressure 29.73 in
Visibility 10.0 miles
Clouds Mostly Cloudy 2600 ft
Mostly Cloudy 3200 ft
Overcast 5000 ft
Dew Point 44 °F
Humidity 76%
Rainfall 0.17 in
Snow Depth Not available.
UV 1 out of 12
Pollen .10 out of 12
Air Quality Not available.
Flu Activity Sporadic
METAR KSMQ 231753Z AUTO 32008G14KT 280V350 10SM -RA BKN026 BKN032 OVC050 12/08 A2972 RMK AO2 SLP066 P0002 60010 T01220078 10122 20106 58004

More Conditions Fewer Conditions

10-Day Weather Forecast

Almanac

Astronomy

Oct. 23, 2014 Rise Set
Actual Time 7:19 AM EDT 6:07 PM EDT
Civil Twilight 6:51 AM EDT 6:35 PM EDT
Nautical Twilight 6:19 AM EDT 7:07 PM EDT
Astronomical Twilight 5:47 AM EDT 7:38 PM EDT
Moon 6:56 AM EDT 6:07 PM EDT
Length of Visible Light 11h 44m
Length of Day
10h 48m
Tomorrow will be 2m 30s shorter.
Waning Crescent, 0% of the Moon is Illuminated
Today
Waning Crescent
Oct 23
New
Oct 30
First Quarter
Nov 6
Full
Nov 14
Last Quarter

Today's Extremes

State Highs State Lows

Community

WunderPhotos

Upload Photos

1,764,339 photos uploaded!

WunderBlogs® & News

By Dr. Jeff Masters
Director of Meteorology, Weather Underground
By Kari Strenfel
Meteorologist, Weather Underground
By Christopher C. Burt
Weather Historian, Weather Underground
October 23, 2014
October 23, 2014
October 23, 2014

Nearby

Snow Depth

Station Depth Elevation
No new snow has been reported.

Earthquake Activity

City Distance Mag. Time & Date
No recent earthquake activity has been reported nearby.
Minimum magnitude displayed is 2.5.

Coastal Water Temperatures

Place Temperature
No Stations Reporting

Nearby Weather Stations